Dubre, Kentucky
Current Conditions -  °F | °C
As of 8:15 PM on Saturday 22 Nov 2014 (Local Time) from KGLW Reporting Station
Overcast Overcast  
Wind Chill: 55°   Ceiling: 8000
Heat Index: 55°   Visibility: 10mi
Dew Point: 37°   Wind: 5mph
Humidity: 51%   Direction: 160°SSE
Pressure: 30.11"   Gusts: NA
Location:  36.84°N, 85.53°W
Report Text: KGLW 230215Z AUTO 16004KT 10SM OVC080 13/03 A3011 RMK AO2 T01250025
Loading
Personal Weather Stations






























Interactive Weather Map New forecast layout! Learn more

10-Day Weather Forecast

Advertisements
Track Severe Weather on mobile